createdAt,value
2023-02-13T00:03:57.803Z,88.40
2023-02-13T00:09:00.021Z,88.40
2023-02-13T00:14:03.609Z,88.40
2023-02-13T00:19:05.792Z,88.60
2023-02-13T00:24:07.991Z,88.60
2023-02-13T00:29:11.574Z,88.40
2023-02-13T00:34:13.645Z,88.50
2023-02-13T00:39:15.909Z,88.50
2023-02-13T00:44:19.896Z,88.60
2023-02-13T00:49:21.972Z,88.60
2023-02-13T00:54:24.145Z,88.60
2023-02-13T00:59:27.765Z,88.60
2023-02-13T01:04:29.940Z,88.60
2023-02-13T01:09:32.289Z,88.70
2023-02-13T01:14:36.082Z,88.60
2023-02-13T01:19:40.386Z,88.60
2023-02-13T01:24:42.494Z,88.70
2023-02-13T01:29:46.020Z,88.60
2023-02-13T01:34:48.198Z,88.60
2023-02-13T01:39:50.395Z,88.60
2023-02-13T01:44:55.898Z,88.60
2023-02-13T01:50:07.296Z,88.50
2023-02-13T01:55:10.860Z,88.50
2023-02-13T02:00:16.589Z,88.30
2023-02-13T02:05:19.952Z,89.10
2023-02-13T02:10:22.356Z,88.30
2023-02-13T02:15:25.932Z,88.30
2023-02-13T02:20:50.623Z,88.30
2023-02-13T02:26:18.515Z,88.30
2023-02-13T02:31:56.214Z,88.20
2023-02-13T02:37:13.937Z,88.20
2023-02-13T02:42:28.959Z,88.30
2023-02-13T02:47:41.976Z,88.20
2023-02-13T02:52:57.108Z,88.20
2023-02-13T02:58:06.745Z,88.20
2023-02-13T03:03:16.715Z,88.20
2023-02-13T03:08:19.444Z,88.20
2023-02-13T03:13:35.596Z,88.30
2023-02-13T03:18:42.779Z,88.10
2023-02-13T03:23:51.241Z,88.10
2023-02-13T03:29:01.649Z,88.10
2023-02-13T03:34:10.701Z,87.90
2023-02-13T03:39:18.935Z,88.00
2023-02-13T03:44:28.083Z,88.10
2023-02-13T03:49:36.503Z,88.20
2023-02-13T03:54:43.706Z,88.40
2023-02-13T03:59:45.696Z,88.40
2023-02-13T04:04:54.304Z,88.40
2023-02-13T04:09:59.083Z,88.20
2023-02-13T04:15:07.436Z,88.30
2023-02-13T04:20:13.021Z,88.40
2023-02-13T04:25:17.774Z,88.40
2023-02-13T04:30:20.195Z,88.30
2023-02-13T04:35:24.089Z,88.10
2023-02-13T04:40:26.262Z,88.20
2023-02-13T04:45:28.342Z,88.40
2023-02-13T04:50:31.913Z,88.60
2023-02-13T04:55:34.022Z,88.70
2023-02-13T05:00:36.218Z,88.60
2023-02-13T05:05:40.084Z,88.70
2023-02-13T05:10:42.369Z,88.70
2023-02-13T05:15:44.534Z,88.50
2023-02-13T05:20:48.292Z,88.20
2023-02-13T05:25:50.801Z,88.30
2023-02-13T05:30:53.173Z,88.50
2023-02-13T05:35:57.015Z,88.50
2023-02-13T05:41:00.014Z,88.40
2023-02-13T05:46:04.482Z,88.40
2023-02-13T05:51:08.660Z,88.20
2023-02-13T05:56:10.806Z,87.70
2023-02-13T06:01:13.469Z,87.50
2023-02-13T06:06:17.483Z,87.50
2023-02-13T06:11:19.922Z,87.60
2023-02-13T06:16:22.199Z,87.70
2023-02-13T06:21:25.920Z,88.00
2023-02-13T06:26:28.018Z,88.00
2023-02-13T06:31:30.322Z,88.10
2023-02-13T06:36:34.058Z,88.20
2023-02-13T06:41:36.388Z,88.30
2023-02-13T06:46:38.777Z,88.30
2023-02-13T06:51:42.695Z,88.30
2023-02-13T06:56:44.891Z,88.00
2023-02-13T07:01:47.254Z,88.00
2023-02-13T07:06:51.223Z,88.30
2023-02-13T07:11:53.451Z,88.40
2023-02-13T07:16:55.820Z,88.40
2023-02-13T07:21:59.554Z,88.20
2023-02-13T07:27:01.923Z,88.20
2023-02-13T07:32:04.734Z,88.20
2023-02-13T07:37:11.814Z,88.70
2023-02-13T07:42:14.480Z,88.70
2023-02-13T07:47:20.504Z,88.60
2023-02-13T07:52:27.092Z,88.60
2023-02-13T07:57:29.698Z,88.90
2023-02-13T08:02:34.383Z,88.30
2023-02-13T08:07:38.889Z,88.30
2023-02-13T08:12:41.887Z,88.70
2023-02-13T08:17:50.023Z,88.70
2023-02-13T08:22:54.658Z,88.90
2023-02-13T08:28:08.508Z,89.20
2023-02-13T08:33:15.444Z,89.30
2023-02-13T08:38:22.459Z,89.10
2023-02-13T08:43:33.196Z,89.10
2023-02-13T08:48:39.807Z,89.10
2023-02-13T08:53:44.251Z,88.90
2023-02-13T08:58:49.624Z,89.00
2023-02-13T09:03:52.423Z,88.80
2023-02-13T09:09:05.940Z,88.90
2023-02-13T09:14:31.263Z,89.00
2023-02-13T09:19:36.801Z,88.40
2023-02-13T09:24:44.105Z,88.20
2023-02-13T09:29:46.887Z,88.40
2023-02-13T09:34:49.773Z,87.50
2023-02-13T09:39:56.353Z,87.40
2023-02-13T09:45:03.924Z,87.80
2023-02-13T09:50:12.596Z,87.70
2023-02-13T09:55:29.197Z,87.70
2023-02-13T10:00:36.063Z,87.50
2023-02-13T10:05:48.314Z,87.70
2023-02-13T10:11:09.453Z,87.30
2023-02-13T10:16:22.627Z,86.60
2023-02-13T10:21:30.080Z,86.80
2023-02-13T10:26:40.679Z,85.60
2023-02-13T10:31:45.458Z,85.40
2023-02-13T10:36:48.488Z,84.70
2023-02-13T10:41:55.098Z,85.10
2023-02-13T10:47:09.102Z,84.60
2023-02-13T10:52:25.931Z,82.60
2023-02-13T10:57:58.868Z,83.70
2023-02-13T11:03:02.052Z,84.40
2023-02-13T11:08:14.201Z,84.80
2023-02-13T11:13:21.859Z,85.30
2023-02-13T11:18:26.066Z,85.10
2023-02-13T11:23:38.905Z,83.80
2023-02-13T11:28:51.193Z,84.00
2023-02-13T11:33:55.983Z,84.30
2023-02-13T11:39:02.237Z,83.90
2023-02-13T11:44:27.711Z,83.40
2023-02-13T11:49:32.866Z,82.30
2023-02-13T11:54:45.480Z,82.60
2023-02-13T11:59:52.968Z,83.70
2023-02-13T12:05:13.573Z,84.00
2023-02-13T12:10:23.101Z,84.50
2023-02-13T12:15:31.144Z,83.10
2023-02-13T12:20:42.206Z,82.10
2023-02-13T12:26:29.465Z,82.40
2023-02-13T12:31:50.925Z,82.10
2023-02-13T12:37:10.275Z,82.60
2023-02-13T12:42:27.921Z,81.80
2023-02-13T12:47:43.071Z,82.10
2023-02-13T12:53:18.191Z,81.60
2023-02-13T12:58:40.962Z,82.10
2023-02-13T13:03:58.230Z,80.80
2023-02-13T13:09:28.857Z,81.60
2023-02-13T13:14:40.798Z,82.20
2023-02-13T13:19:54.312Z,81.20
2023-02-13T13:25:04.443Z,81.30
2023-02-13T13:30:18.673Z,81.10
2023-02-13T13:35:23.063Z,80.80
2023-02-13T13:40:36.533Z,81.00
2023-02-13T13:45:49.284Z,82.10
2023-02-13T13:50:54.526Z,82.20
2023-02-13T13:56:04.795Z,82.80
2023-02-13T14:01:27.812Z,83.00
2023-02-13T14:07:08.960Z,81.40
2023-02-13T14:12:46.322Z,79.00
2023-02-13T14:17:53.813Z,81.50
2023-02-13T14:22:56.760Z,82.30
2023-02-13T14:28:06.621Z,81.00
2023-02-13T14:33:27.550Z,81.30
2023-02-13T14:38:31.380Z,82.10
2023-02-13T14:43:42.779Z,82.80
2023-02-13T14:48:51.436Z,82.90
2023-02-13T14:54:00.178Z,82.80
2023-02-13T14:59:13.406Z,82.30
2023-02-13T15:04:35.057Z,81.90
2023-02-13T15:09:39.797Z,82.00
2023-02-13T15:14:44.484Z,81.50
2023-02-13T15:19:51.360Z,81.30
2023-02-13T15:25:00.340Z,81.90
2023-02-13T15:30:23.835Z,82.60
2023-02-13T15:35:33.989Z,83.40
2023-02-13T15:40:41.737Z,83.20
2023-02-13T15:45:45.817Z,83.40
2023-02-13T15:50:48.566Z,84.80
2023-02-13T15:55:59.821Z,84.10
2023-02-13T16:01:06.990Z,84.10
2023-02-13T16:06:14.729Z,83.90
2023-02-13T16:11:30.806Z,83.30
2023-02-13T16:16:43.641Z,83.00
2023-02-13T16:21:50.210Z,83.30
2023-02-13T16:26:53.545Z,83.40
2023-02-13T16:32:16.119Z,83.50
2023-02-13T16:37:32.915Z,84.20
2023-02-13T16:42:35.568Z,84.40
2023-02-13T16:47:40.030Z,84.50
2023-02-13T16:52:42.752Z,84.70
2023-02-13T16:57:45.304Z,84.70
2023-02-13T17:02:50.170Z,84.90
2023-02-13T17:07:54.744Z,85.00
2023-02-13T17:13:04.791Z,85.10
2023-02-13T17:18:08.864Z,85.10
2023-02-13T17:23:16.661Z,85.10
2023-02-13T17:28:21.836Z,85.40
2023-02-13T17:33:27.625Z,85.40
2023-02-13T17:38:30.141Z,85.50
2023-02-13T17:43:41.438Z,85.70
2023-02-13T17:48:47.664Z,85.80
2023-02-13T17:53:50.082Z,85.90
2023-02-13T17:58:55.447Z,85.90
2023-02-13T18:03:59.854Z,86.20
2023-02-13T18:09:02.625Z,86.40
2023-02-13T18:14:05.033Z,86.50
2023-02-13T18:19:09.516Z,86.70
2023-02-13T18:24:17.468Z,86.90
2023-02-13T18:29:19.986Z,86.90
2023-02-13T18:34:25.858Z,87.10
2023-02-13T18:39:28.326Z,87.10
2023-02-13T18:44:31.012Z,86.90
2023-02-13T18:49:36.571Z,87.00
2023-02-13T18:54:39.251Z,87.00
2023-02-13T18:59:41.812Z,86.80
2023-02-13T19:04:45.742Z,87.30
2023-02-13T19:09:48.225Z,87.40
2023-02-13T19:14:57.849Z,87.40
2023-02-13T19:20:01.912Z,87.70
2023-02-13T19:25:07.327Z,87.50
2023-02-13T19:30:13.860Z,87.50
2023-02-13T19:35:28.912Z,88.00
2023-02-13T19:40:33.329Z,88.00
2023-02-13T19:45:38.844Z,87.80
2023-02-13T19:50:46.110Z,87.80
2023-02-13T19:55:51.408Z,87.70
2023-02-13T20:01:05.804Z,87.80
2023-02-13T20:06:17.562Z,87.00
2023-02-13T20:11:22.417Z,86.90
2023-02-13T20:16:25.035Z,86.70
2023-02-13T20:21:34.180Z,86.60
2023-02-13T20:26:37.574Z,86.90
2023-02-13T20:31:40.504Z,87.00
2023-02-13T20:36:44.741Z,87.00
2023-02-13T20:41:47.576Z,86.70
2023-02-13T20:46:50.353Z,86.40
2023-02-13T20:51:54.291Z,86.50
2023-02-13T20:56:58.880Z,86.40
2023-02-13T21:02:01.287Z,86.40
2023-02-13T21:07:05.456Z,86.40
2023-02-13T21:12:19.106Z,86.40
2023-02-13T21:17:21.696Z,86.50
2023-02-13T21:22:25.960Z,86.40
2023-02-13T21:27:28.642Z,86.40
2023-02-13T21:32:31.094Z,86.60
2023-02-13T21:37:35.206Z,86.80
2023-02-13T21:42:40.847Z,86.70
2023-02-13T21:47:43.736Z,86.60
2023-02-13T21:52:54.314Z,86.70
2023-02-13T21:57:56.802Z,86.90
2023-02-13T22:02:59.942Z,86.70
2023-02-13T22:08:07.519Z,86.70
2023-02-13T22:13:09.894Z,87.20
2023-02-13T22:18:13.097Z,87.20
2023-02-13T22:23:17.150Z,86.90
2023-02-13T22:28:19.766Z,87.10
2023-02-13T22:33:22.653Z,87.00
2023-02-13T22:38:27.066Z,87.20
2023-02-13T22:43:30.484Z,87.80
2023-02-13T22:48:35.278Z,88.00
2023-02-13T22:53:49.151Z,88.10
2023-02-13T22:58:52.355Z,88.20
2023-02-13T23:04:01.151Z,88.30
2023-02-13T23:09:05.284Z,88.30
2023-02-13T23:14:08.365Z,88.30
2023-02-13T23:19:13.965Z,88.30
2023-02-13T23:24:23.640Z,88.30
2023-02-13T23:29:33.409Z,88.30
2023-02-13T23:34:37.129Z,88.20
2023-02-13T23:39:47.185Z,88.20
2023-02-13T23:44:53.021Z,88.60
2023-02-13T23:50:10.430Z,88.70
2023-02-13T23:55:20.855Z,89.30
